createdAt,value
2019-02-15T00:00:40.306Z,8.87
2019-02-15T00:03:07.768Z,8.97
2019-02-15T00:05:36.071Z,8.81
2019-02-15T00:08:03.622Z,8.88
2019-02-15T00:10:31.048Z,8.82
2019-02-15T00:12:58.506Z,8.79
2019-02-15T00:15:25.993Z,8.93
2019-02-15T00:18:08.335Z,9.03
2019-02-15T00:20:44.318Z,8.70
2019-02-15T00:23:11.738Z,8.68
2019-02-15T00:25:39.182Z,8.89
2019-02-15T00:28:06.657Z,8.66
2019-02-15T00:30:34.147Z,8.80
2019-02-15T00:33:01.595Z,8.79
2019-02-15T00:35:29.096Z,8.78
2019-02-15T00:37:56.516Z,9.02
2019-02-15T00:40:24.004Z,8.87
2019-02-15T00:42:51.664Z,8.58
2019-02-15T00:45:19.096Z,8.50
2019-02-15T00:47:48.885Z,8.59
2019-02-15T00:50:17.872Z,8.70
2019-02-15T00:52:45.332Z,8.71
2019-02-15T00:55:16.594Z,8.57
2019-02-15T00:57:46.882Z,8.72
2019-02-15T01:00:16.839Z,8.81
2019-02-15T01:02:46.809Z,8.65
2019-02-15T01:05:14.247Z,8.65
2019-02-15T01:08:00.410Z,8.75
2019-02-15T01:10:37.758Z,8.85
2019-02-15T01:13:05.195Z,8.80
2019-02-15T01:15:32.641Z,8.67
2019-02-15T01:18:00.132Z,8.61
2019-02-15T01:20:27.576Z,8.77
2019-02-15T01:22:55.881Z,8.88
2019-02-15T01:25:23.329Z,8.73
2019-02-15T01:27:53.271Z,8.95
2019-02-15T01:30:26.197Z,8.92
2019-02-15T01:32:56.111Z,8.88
2019-02-15T01:35:24.706Z,8.62
2019-02-15T01:37:57.351Z,8.85
2019-02-15T01:40:43.566Z,8.65
2019-02-15T01:43:25.928Z,8.81
2019-02-15T01:45:53.730Z,8.88
2019-02-15T01:48:21.213Z,8.69
2019-02-15T01:50:48.690Z,8.86
2019-02-15T01:53:16.132Z,8.68
2019-02-15T01:55:43.596Z,8.94
2019-02-15T01:58:11.030Z,8.95
2019-02-15T02:00:38.490Z,8.80
2019-02-15T02:03:06.036Z,8.75
2019-02-15T02:05:33.463Z,8.76
2019-02-15T02:08:00.931Z,8.86
2019-02-15T02:10:28.422Z,8.86
2019-02-15T02:12:55.883Z,8.87
2019-02-15T02:15:23.674Z,8.77
2019-02-15T02:17:51.117Z,8.81
2019-02-15T02:20:19.405Z,8.64
2019-02-15T02:22:46.881Z,8.75
2019-02-15T02:25:14.344Z,8.78
2019-02-15T02:27:41.800Z,8.69
2019-02-15T02:30:09.269Z,8.69
2019-02-15T02:32:36.748Z,8.73
2019-02-15T02:35:04.200Z,8.74
2019-02-15T02:37:31.655Z,8.77
2019-02-15T02:39:59.160Z,8.79
2019-02-15T02:42:26.607Z,8.69
2019-02-15T02:44:54.093Z,8.68
2019-02-15T02:47:21.535Z,8.72
2019-02-15T02:49:49.008Z,8.85
2019-02-15T02:52:16.474Z,8.75
2019-02-15T02:54:43.936Z,8.81
2019-02-15T02:57:11.374Z,8.90
2019-02-15T02:59:38.825Z,8.83
2019-02-15T03:02:06.310Z,8.71
2019-02-15T03:04:33.776Z,8.78
2019-02-15T03:07:01.239Z,8.70
2019-02-15T03:09:28.678Z,8.71
2019-02-15T03:11:56.142Z,8.85
2019-02-15T03:14:24.571Z,8.72
2019-02-15T03:16:52.034Z,8.88
2019-02-15T03:19:19.465Z,8.58
2019-02-15T03:21:46.907Z,8.53
2019-02-15T03:24:14.380Z,8.66
2019-02-15T03:26:41.821Z,8.63
2019-02-15T03:29:09.272Z,8.64
2019-02-15T03:31:36.796Z,8.69
2019-02-15T03:34:04.248Z,8.55
2019-02-15T03:36:36.653Z,8.67
2019-02-15T03:39:14.032Z,8.67
2019-02-15T03:41:41.492Z,8.60
2019-02-15T03:44:08.952Z,8.49
2019-02-15T03:46:36.386Z,8.57
2019-02-15T03:49:03.846Z,8.56
2019-02-15T03:51:31.313Z,8.66
2019-02-15T03:53:58.784Z,8.67
2019-02-15T03:56:26.206Z,8.68
2019-02-15T03:58:53.638Z,8.43
2019-02-15T04:01:21.088Z,8.48
2019-02-15T04:03:48.513Z,8.50
2019-02-15T04:06:15.951Z,8.53
2019-02-15T04:08:43.408Z,8.61
2019-02-15T04:11:10.875Z,8.47
2019-02-15T04:13:38.374Z,8.49
2019-02-15T04:16:05.820Z,8.51
2019-02-15T04:18:33.247Z,8.70
2019-02-15T04:21:00.729Z,8.59
2019-02-15T04:23:28.192Z,8.71
2019-02-15T04:25:55.928Z,8.76
2019-02-15T04:28:23.411Z,8.72
2019-02-15T04:30:50.875Z,8.83
2019-02-15T04:33:18.335Z,8.80
2019-02-15T04:35:45.772Z,8.81
2019-02-15T04:38:13.229Z,8.77
2019-02-15T04:40:40.674Z,8.86
2019-02-15T04:43:08.144Z,8.74
2019-02-15T04:45:35.573Z,8.70
2019-02-15T04:48:03.065Z,8.68
2019-02-15T04:50:30.513Z,8.80
2019-02-15T04:52:57.979Z,8.67
2019-02-15T04:55:26.471Z,8.51
2019-02-15T04:57:53.959Z,8.72
2019-02-15T05:00:21.398Z,8.57
2019-02-15T05:02:48.823Z,8.68
2019-02-15T05:05:16.308Z,8.63
2019-02-15T05:07:43.793Z,8.71
2019-02-15T05:10:11.264Z,8.79
2019-02-15T05:12:38.797Z,8.71
2019-02-15T05:15:06.957Z,8.72
2019-02-15T05:17:34.419Z,8.64
2019-02-15T05:20:01.863Z,8.74
2019-02-15T05:22:29.324Z,8.61
2019-02-15T05:24:57.022Z,8.56
2019-02-15T05:27:24.502Z,8.71
2019-02-15T05:29:51.951Z,8.60
2019-02-15T05:32:19.412Z,8.63
2019-02-15T05:34:47.768Z,8.63
2019-02-15T05:37:15.213Z,8.57
2019-02-15T05:39:42.644Z,8.67
2019-02-15T05:42:10.101Z,8.66
2019-02-15T05:44:37.562Z,8.59
2019-02-15T05:47:05.039Z,8.62
2019-02-15T05:49:32.476Z,8.67
2019-02-15T05:51:59.934Z,8.58
2019-02-15T05:54:27.721Z,8.53
2019-02-15T05:56:55.194Z,8.50
2019-02-15T05:59:22.623Z,8.53
2019-02-15T06:01:50.105Z,8.74
2019-02-15T06:04:17.585Z,8.82
2019-02-15T06:06:45.043Z,8.80
2019-02-15T06:09:12.497Z,8.90
2019-02-15T06:11:39.953Z,8.54
2019-02-15T06:14:07.368Z,8.82
2019-02-15T06:16:34.887Z,8.83
2019-02-15T06:19:02.337Z,8.67
2019-02-15T06:21:29.785Z,8.83
2019-02-15T06:23:58.176Z,8.87
2019-02-15T06:26:25.665Z,8.90
2019-02-15T06:28:53.079Z,8.87
2019-02-15T06:31:20.580Z,8.91
2019-02-15T06:33:48.096Z,8.78
2019-02-15T06:36:15.519Z,8.87
2019-02-15T06:38:42.943Z,8.92
2019-02-15T06:41:12.330Z,9.03
2019-02-15T06:43:37.909Z,8.84
2019-02-15T06:46:06.275Z,9.00
2019-02-15T06:48:33.700Z,9.06
2019-02-15T06:51:01.196Z,8.99
2019-02-15T06:53:28.762Z,8.91
2019-02-15T06:55:56.206Z,9.00
2019-02-15T06:58:23.668Z,9.07
2019-02-15T07:01:09.085Z,8.93
2019-02-15T07:03:37.330Z,9.01
2019-02-15T07:06:04.769Z,9.06
2019-02-15T07:08:32.234Z,9.05
2019-02-15T07:10:59.664Z,9.12
2019-02-15T07:13:27.082Z,9.01
2019-02-15T07:15:54.570Z,9.17
2019-02-15T07:18:22.001Z,9.06
2019-02-15T07:20:49.470Z,9.12
2019-02-15T07:23:16.910Z,9.19
2019-02-15T07:25:44.390Z,9.16
2019-02-15T07:28:11.829Z,9.23
2019-02-15T07:30:39.316Z,9.03
2019-02-15T07:33:06.802Z,9.15
2019-02-15T07:35:34.243Z,9.16
2019-02-15T07:38:01.677Z,9.23
2019-02-15T07:40:29.521Z,9.32
2019-02-15T07:42:57.944Z,9.30
2019-02-15T07:45:25.466Z,9.56
2019-02-15T07:47:52.912Z,9.56
2019-02-15T07:50:20.380Z,9.58
2019-02-15T07:52:47.853Z,9.49
2019-02-15T07:55:15.300Z,9.66
2019-02-15T07:57:42.742Z,9.61
2019-02-15T08:00:13.043Z,9.67
2019-02-15T08:02:40.540Z,9.80
2019-02-15T08:05:08.014Z,9.89
2019-02-15T08:07:35.458Z,9.92
2019-02-15T08:10:02.926Z,9.91
2019-02-15T08:12:31.398Z,9.93
2019-02-15T08:14:58.874Z,9.97
2019-02-15T08:17:26.351Z,9.95
2019-02-15T08:19:53.808Z,10.16
2019-02-15T08:22:22.728Z,10.24
2019-02-15T08:24:48.755Z,10.46
2019-02-15T08:27:16.220Z,10.49
2019-02-15T08:29:43.687Z,10.59
2019-02-15T08:32:11.163Z,10.67
2019-02-15T08:34:38.648Z,10.67
2019-02-15T08:37:06.076Z,10.63
2019-02-15T08:39:33.542Z,10.84
2019-02-15T08:42:03.897Z,10.93
2019-02-15T08:44:28.515Z,11.05
2019-02-15T08:46:55.959Z,11.07
2019-02-15T08:49:23.392Z,11.11
2019-02-15T08:51:50.830Z,11.11
2019-02-15T08:54:18.353Z,10.97
2019-02-15T08:56:45.779Z,11.27
2019-02-15T08:59:13.230Z,11.30
2019-02-15T09:01:40.685Z,11.35
2019-02-15T09:04:08.114Z,11.35
2019-02-15T09:06:35.563Z,11.44
2019-02-15T09:09:03.017Z,11.52
2019-02-15T09:11:31.477Z,11.61
2019-02-15T09:13:58.924Z,11.66
2019-02-15T09:16:26.455Z,11.81
2019-02-15T09:18:53.917Z,11.83
2019-02-15T09:21:21.405Z,11.85
2019-02-15T09:23:48.906Z,11.92
2019-02-15T09:26:18.240Z,11.90
2019-02-15T09:28:44.609Z,11.98
2019-02-15T09:31:12.041Z,11.92
2019-02-15T09:33:39.548Z,11.99
2019-02-15T09:36:07.018Z,12.07
2019-02-15T09:38:34.438Z,12.11
2019-02-15T09:41:02.032Z,12.17
2019-02-15T09:43:29.465Z,12.23
2019-02-15T09:45:56.908Z,12.32
2019-02-15T09:48:24.384Z,12.41
2019-02-15T09:50:51.858Z,12.49
2019-02-15T09:53:19.305Z,12.49
2019-02-15T09:55:46.784Z,12.65
2019-02-15T09:58:14.274Z,12.70
2019-02-15T10:00:41.734Z,12.77
2019-02-15T10:03:09.237Z,12.80
2019-02-15T10:05:36.675Z,12.81
2019-02-15T10:08:04.145Z,12.96
2019-02-15T10:10:32.623Z,13.05
2019-02-15T10:13:00.097Z,13.13
2019-02-15T10:15:27.581Z,13.14
2019-02-15T10:17:55.036Z,13.22
2019-02-15T10:20:22.524Z,13.27
2019-02-15T10:22:49.985Z,13.35
2019-02-15T10:25:17.436Z,13.36
2019-02-15T10:27:44.888Z,13.54
2019-02-15T10:30:12.349Z,13.62
2019-02-15T10:32:39.841Z,13.64
2019-02-15T10:35:07.329Z,13.69
2019-02-15T10:37:34.851Z,13.78
2019-02-15T10:40:03.144Z,13.76
2019-02-15T10:42:30.588Z,13.79
2019-02-15T10:44:58.039Z,13.82
2019-02-15T10:47:25.560Z,13.97
2019-02-15T10:49:52.963Z,14.14
2019-02-15T10:52:20.408Z,14.12
2019-02-15T10:54:47.877Z,14.10
2019-02-15T10:57:15.339Z,14.24
2019-02-15T10:59:42.807Z,14.22
2019-02-15T11:02:10.282Z,14.42
2019-02-15T11:04:37.752Z,14.49
2019-02-15T11:07:05.256Z,14.57
2019-02-15T11:09:33.759Z,14.68
2019-02-15T11:12:01.207Z,14.79
2019-02-15T11:14:28.679Z,14.72
2019-02-15T11:16:56.151Z,14.85
2019-02-15T11:19:23.622Z,14.81
2019-02-15T11:21:51.068Z,14.79
2019-02-15T11:24:18.550Z,14.83
2019-02-15T11:26:45.995Z,14.91
2019-02-15T11:29:13.439Z,14.87
2019-02-15T11:31:40.903Z,14.97
2019-02-15T11:34:08.374Z,15.03
2019-02-15T11:36:35.836Z,15.13
2019-02-15T11:39:04.232Z,15.22
2019-02-15T11:41:31.694Z,15.30
2019-02-15T11:43:59.127Z,15.35
2019-02-15T11:46:26.592Z,15.46
2019-02-15T11:48:54.031Z,15.58
2019-02-15T11:51:21.499Z,15.69
2019-02-15T11:53:49.757Z,15.69
2019-02-15T11:56:17.225Z,15.71
2019-02-15T11:58:44.716Z,15.82
2019-02-15T12:01:12.148Z,15.71
2019-02-15T12:03:39.608Z,15.72
2019-02-15T12:06:07.077Z,15.74
2019-02-15T12:08:35.302Z,15.68
2019-02-15T12:11:02.767Z,15.86
2019-02-15T12:13:30.242Z,15.98
2019-02-15T12:15:57.677Z,16.09
2019-02-15T12:18:25.121Z,16.04
2019-02-15T12:20:52.584Z,16.07
2019-02-15T12:23:20.060Z,16.15
2019-02-15T12:25:47.555Z,16.07
2019-02-15T12:28:16.013Z,16.16
2019-02-15T12:30:43.487Z,16.28
2019-02-15T12:33:10.965Z,16.33
2019-02-15T12:35:38.476Z,16.47
2019-02-15T12:38:05.958Z,16.43
2019-02-15T12:40:33.400Z,16.51
2019-02-15T12:43:00.840Z,16.52
2019-02-15T12:45:28.307Z,16.59
2019-02-15T12:47:55.805Z,16.61
2019-02-15T12:50:24.242Z,16.66
2019-02-15T12:52:51.733Z,16.68
2019-02-15T12:55:19.197Z,16.68
2019-02-15T12:57:46.681Z,16.81
2019-02-15T13:00:15.097Z,16.86
2019-02-15T13:02:42.607Z,16.84
2019-02-15T13:05:10.052Z,17.02
2019-02-15T13:07:37.488Z,17.14
2019-02-15T13:10:04.970Z,17.13
2019-02-15T13:12:33.638Z,17.18
2019-02-15T13:15:01.127Z,17.17
2019-02-15T13:17:28.586Z,17.22
2019-02-15T13:19:56.063Z,17.31
2019-02-15T13:22:23.561Z,17.25
2019-02-15T13:24:51.011Z,17.37
2019-02-15T13:27:18.498Z,17.41
2019-02-15T13:29:45.934Z,17.51
2019-02-15T13:32:13.412Z,17.54
2019-02-15T13:34:40.862Z,17.59
2019-02-15T13:37:08.371Z,17.55
2019-02-15T13:39:35.853Z,17.47
2019-02-15T13:42:03.299Z,17.55
2019-02-15T13:44:30.789Z,17.68
2019-02-15T13:46:58.262Z,17.73
2019-02-15T13:49:25.718Z,17.78
2019-02-15T13:51:53.220Z,17.91
2019-02-15T13:54:20.686Z,17.91
2019-02-15T13:56:48.166Z,17.98
2019-02-15T13:59:15.669Z,18.02
2019-02-15T14:01:43.129Z,18.04
2019-02-15T14:04:10.625Z,18.03
2019-02-15T14:06:38.103Z,18.11
2019-02-15T14:09:05.564Z,18.15
2019-02-15T14:11:33.049Z,18.20
2019-02-15T14:14:00.578Z,18.04
2019-02-15T14:16:28.044Z,18.11
2019-02-15T14:18:55.526Z,18.08
2019-02-15T14:21:22.974Z,17.93
2019-02-15T14:23:50.481Z,17.94
2019-02-15T14:26:18.003Z,17.87
2019-02-15T14:28:45.447Z,17.98
2019-02-15T14:31:12.955Z,18.03
2019-02-15T14:33:40.405Z,17.94
2019-02-15T14:36:08.456Z,18.07
2019-02-15T14:38:35.705Z,18.04
2019-02-15T14:41:03.144Z,18.08
2019-02-15T14:43:30.600Z,17.96
2019-02-15T14:45:58.048Z,17.94
2019-02-15T14:48:25.507Z,17.83
2019-02-15T14:50:52.935Z,17.88
2019-02-15T14:53:20.412Z,17.73
2019-02-15T14:55:48.068Z,17.65
2019-02-15T14:58:15.338Z,17.60
2019-02-15T15:00:42.817Z,17.52
2019-02-15T15:03:10.266Z,17.54
2019-02-15T15:05:37.739Z,17.35
2019-02-15T15:08:05.175Z,17.47
2019-02-15T15:10:32.641Z,17.32
2019-02-15T15:13:00.117Z,17.34
2019-02-15T15:15:27.607Z,17.40
2019-02-15T15:18:02.533Z,17.28
2019-02-15T15:20:22.594Z,17.28
2019-02-15T15:22:50.088Z,17.17
2019-02-15T15:25:17.547Z,17.16
2019-02-15T15:27:45.048Z,17.05
2019-02-15T15:30:12.510Z,17.09
2019-02-15T15:32:39.998Z,17.10
2019-02-15T15:35:07.423Z,17.07
2019-02-15T15:37:34.890Z,17.06
2019-02-15T15:40:02.401Z,17.08
2019-02-15T15:42:29.860Z,17.03
2019-02-15T15:44:57.344Z,16.97
2019-02-15T15:47:24.838Z,16.93
2019-02-15T15:49:52.292Z,16.92
2019-02-15T15:52:19.769Z,16.69
2019-02-15T15:54:47.266Z,16.65
2019-02-15T15:57:14.770Z,16.59
2019-02-15T15:59:42.258Z,16.47
2019-02-15T16:02:10.043Z,16.42
2019-02-15T16:04:37.537Z,16.54
2019-02-15T16:07:05.016Z,16.32
2019-02-15T16:09:32.483Z,16.33
2019-02-15T16:11:59.982Z,16.43
2019-02-15T16:14:27.450Z,16.29
2019-02-15T16:16:54.887Z,16.08
2019-02-15T16:19:22.363Z,15.91
2019-02-15T16:21:49.809Z,15.89
2019-02-15T16:24:17.284Z,15.99
2019-02-15T16:26:44.759Z,15.92
2019-02-15T16:29:13.931Z,15.78
2019-02-15T16:31:40.519Z,15.61
2019-02-15T16:34:08.014Z,15.73
2019-02-15T16:36:35.467Z,15.84
2019-02-15T16:39:02.943Z,15.74
2019-02-15T16:41:30.391Z,15.62
2019-02-15T16:43:57.873Z,15.59
2019-02-15T16:46:25.359Z,15.46
2019-02-15T16:48:52.815Z,15.38
2019-02-15T16:51:20.293Z,15.23
2019-02-15T16:53:47.731Z,15.36
2019-02-15T16:56:15.220Z,15.05
2019-02-15T16:58:42.706Z,15.03
2019-02-15T17:01:11.122Z,15.19
2019-02-15T17:03:38.570Z,14.85
2019-02-15T17:06:06.075Z,14.63
2019-02-15T17:08:33.537Z,15.07
2019-02-15T17:11:01.055Z,14.68
2019-02-15T17:13:28.540Z,14.79
2019-02-15T17:15:56.067Z,14.59
2019-02-15T17:18:23.506Z,14.60
2019-02-15T17:20:50.992Z,14.87
2019-02-15T17:23:18.456Z,14.40
2019-02-15T17:25:46.089Z,14.41
2019-02-15T17:28:13.425Z,14.54
2019-02-15T17:30:41.699Z,14.60
2019-02-15T17:33:10.122Z,14.47
2019-02-15T17:35:37.657Z,14.35
2019-02-15T17:38:05.181Z,14.58
2019-02-15T17:40:32.635Z,14.38
2019-02-15T17:43:00.089Z,14.38
2019-02-15T17:45:27.560Z,14.11
2019-02-15T17:47:55.005Z,14.16
2019-02-15T17:50:22.491Z,14.21
2019-02-15T17:52:49.954Z,14.04
2019-02-15T17:55:18.949Z,14.09
2019-02-15T17:57:46.486Z,14.19
2019-02-15T18:00:13.946Z,14.15
2019-02-15T18:02:42.261Z,14.08
2019-02-15T18:05:09.752Z,14.11
2019-02-15T18:07:37.251Z,14.10
2019-02-15T18:10:04.698Z,14.01
2019-02-15T18:12:32.255Z,13.77
2019-02-15T18:14:59.670Z,13.84
2019-02-15T18:17:27.166Z,13.92
2019-02-15T18:19:54.594Z,13.91
2019-02-15T18:22:22.062Z,13.79
2019-02-15T18:24:49.556Z,13.66
2019-02-15T18:27:17.104Z,13.89
2019-02-15T18:29:45.315Z,13.63
2019-02-15T18:32:12.813Z,13.62
2019-02-15T18:34:40.272Z,13.63
2019-02-15T18:37:07.858Z,13.61
2019-02-15T18:39:35.342Z,13.64
2019-02-15T18:42:02.804Z,13.53
2019-02-15T18:44:30.289Z,13.51
2019-02-15T18:46:57.707Z,13.49
2019-02-15T18:49:25.179Z,13.56
2019-02-15T18:51:52.666Z,13.52
2019-02-15T18:54:20.153Z,13.62
2019-02-15T18:56:47.610Z,13.49
2019-02-15T18:59:15.098Z,13.41
2019-02-15T19:01:43.379Z,13.43
2019-02-15T19:04:10.842Z,13.44
2019-02-15T19:06:38.351Z,13.35
2019-02-15T19:09:05.817Z,13.31
2019-02-15T19:11:33.270Z,13.33
2019-02-15T19:14:00.707Z,13.30
2019-02-15T19:16:28.237Z,12.94
2019-02-15T19:18:55.684Z,13.21
2019-02-15T19:21:23.119Z,13.07
2019-02-15T19:23:50.590Z,12.96
2019-02-15T19:26:18.062Z,13.06
2019-02-15T19:31:19.490Z,13.07
2019-02-15T19:33:46.933Z,12.91
2019-02-15T19:36:14.413Z,12.80
2019-02-15T19:38:41.853Z,12.94
2019-02-15T19:41:09.311Z,13.00
2019-02-15T19:43:36.896Z,12.75
2019-02-15T19:46:04.393Z,12.77
2019-02-15T19:48:32.664Z,12.70
2019-02-15T19:51:00.223Z,12.68
2019-02-15T19:53:27.680Z,12.71
2019-02-15T19:55:55.189Z,12.87
2019-02-15T19:58:22.666Z,12.48
2019-02-15T20:00:50.096Z,12.58
2019-02-15T20:03:17.582Z,12.58
2019-02-15T20:05:45.045Z,12.73
2019-02-15T20:08:12.480Z,12.48
2019-02-15T20:10:39.963Z,12.57
2019-02-15T20:13:07.438Z,12.65
2019-02-15T20:15:34.898Z,12.50
2019-02-15T20:18:02.358Z,12.39
2019-02-15T20:20:29.836Z,12.37
2019-02-15T20:22:57.321Z,12.40
2019-02-15T20:25:24.802Z,12.34
2019-02-15T20:27:52.302Z,12.65
2019-02-15T20:30:20.652Z,12.57
2019-02-15T20:32:48.121Z,12.54
2019-02-15T20:35:15.547Z,12.57
2019-02-15T20:37:43.098Z,12.47
2019-02-15T20:40:10.565Z,12.47
2019-02-15T20:42:38.002Z,12.45
2019-02-15T20:45:05.489Z,12.34
2019-02-15T20:47:32.954Z,12.30
2019-02-15T20:50:00.434Z,12.46
2019-02-15T20:52:27.880Z,12.48
2019-02-15T20:54:55.347Z,12.35
2019-02-15T20:57:22.830Z,12.23
2019-02-15T20:59:50.295Z,12.23
2019-02-15T21:02:17.745Z,12.39
2019-02-15T21:04:45.811Z,12.30
2019-02-15T21:07:13.315Z,12.14
2019-02-15T21:09:40.748Z,12.30
2019-02-15T21:12:08.207Z,12.05
2019-02-15T21:14:35.655Z,12.31
2019-02-15T21:17:03.104Z,12.20
2019-02-15T21:19:30.574Z,12.19
2019-02-15T21:21:58.009Z,12.20
2019-02-15T21:24:25.554Z,12.21
2019-02-15T21:26:52.953Z,12.14
2019-02-15T21:29:21.508Z,12.00
2019-02-15T21:31:49.069Z,12.22
2019-02-15T21:34:16.522Z,12.18
2019-02-15T21:36:43.985Z,12.08
2019-02-15T21:39:11.438Z,11.89
2019-02-15T21:41:38.932Z,12.01
2019-02-15T21:44:06.432Z,11.89
2019-02-15T21:46:33.891Z,12.05
2019-02-15T21:49:01.333Z,12.02
2019-02-15T21:51:30.289Z,11.89
2019-02-15T21:53:57.819Z,11.85
2019-02-15T21:56:25.279Z,11.94
2019-02-15T21:58:52.753Z,11.87
2019-02-15T22:01:20.203Z,11.94
2019-02-15T22:03:47.621Z,11.85
2019-02-15T22:06:15.110Z,11.97
2019-02-15T22:08:42.570Z,11.64
2019-02-15T22:11:10.012Z,11.62
2019-02-15T22:13:38.233Z,11.75
2019-02-15T22:16:05.703Z,11.79
2019-02-15T22:18:33.169Z,11.62
2019-02-15T22:21:00.694Z,11.87
2019-02-15T22:23:28.142Z,11.98
2019-02-15T22:25:55.620Z,11.83
2019-02-15T22:28:23.070Z,11.79
2019-02-15T22:30:50.550Z,11.89
2019-02-15T22:33:18.005Z,11.64
2019-02-15T22:35:45.470Z,11.83
2019-02-15T22:38:12.963Z,11.77
2019-02-15T22:40:40.451Z,11.84
2019-02-15T22:43:09.744Z,11.68
2019-02-15T22:45:37.185Z,11.71
2019-02-15T22:48:04.666Z,11.83
2019-02-15T22:50:36.059Z,11.65
2019-02-15T22:52:59.590Z,11.66
2019-02-15T22:55:27.049Z,11.51
2019-02-15T22:57:54.525Z,11.54
2019-02-15T23:00:24.392Z,11.62
2019-02-15T23:02:53.010Z,11.51
2019-02-15T23:05:20.570Z,11.49
2019-02-15T23:07:48.412Z,11.47
2019-02-15T23:10:15.888Z,11.65
2019-02-15T23:12:43.355Z,11.65
2019-02-15T23:15:10.807Z,11.64
2019-02-15T23:17:38.289Z,11.68
2019-02-15T23:20:05.740Z,11.75
2019-02-15T23:22:33.213Z,11.66
2019-02-15T23:25:00.669Z,11.54
2019-02-15T23:27:28.125Z,11.70
2019-02-15T23:29:55.589Z,11.54
2019-02-15T23:32:23.065Z,11.65
2019-02-15T23:34:50.508Z,11.56
2019-02-15T23:37:18.884Z,11.63
2019-02-15T23:39:46.354Z,11.70
2019-02-15T23:42:13.818Z,11.57
2019-02-15T23:44:41.261Z,11.58
2019-02-15T23:47:08.705Z,11.46
2019-02-15T23:49:36.138Z,11.45
2019-02-15T23:52:03.652Z,11.53
2019-02-15T23:54:31.105Z,11.38
2019-02-15T23:56:58.562Z,11.45
2019-02-15T23:59:25.997Z,11.38
